createdAt,value
2022-11-05T00:00:29.771Z,1016.7
2022-11-05T00:15:33.434Z,1017.0
2022-11-05T00:30:33.963Z,1017.0
2022-11-05T00:45:33.683Z,1017.0
2022-11-05T01:00:35.635Z,1017.0
2022-11-05T01:15:23.502Z,1017.0
2022-11-05T01:30:25.294Z,1017.0
2022-11-05T01:45:23.634Z,1017.0
2022-11-05T02:00:27.695Z,1017.0
2022-11-05T02:15:23.815Z,1017.0
2022-11-05T02:30:23.956Z,1017.7
2022-11-05T02:45:23.737Z,1017.0
2022-11-05T03:00:28.646Z,1018.0
2022-11-05T03:15:23.781Z,1018.0
2022-11-05T03:30:23.799Z,1018.0
2022-11-05T03:45:23.801Z,1018.0
2022-11-05T04:00:24.943Z,1018.0
2022-11-05T04:15:23.837Z,1018.0
2022-11-05T04:30:24.092Z,1018.0
2022-11-05T04:45:23.833Z,1018.0
2022-11-05T05:00:36.026Z,1019.0
2022-11-05T05:15:23.904Z,1019.0
2022-11-05T05:30:23.825Z,1019.0
2022-11-05T05:45:24.255Z,1019.0
2022-11-05T06:00:27.414Z,1019.0
2022-11-05T06:15:24.025Z,1019.0
2022-11-05T06:30:28.109Z,1019.3
2022-11-05T06:45:23.970Z,1020.0
2022-11-05T07:00:29.933Z,1020.0
2022-11-05T07:15:23.957Z,1020.0
2022-11-05T07:30:24.065Z,1020.3
2022-11-05T07:45:24.022Z,1021.0
2022-11-05T08:00:35.626Z,1021.0
2022-11-05T08:15:24.438Z,1021.0
2022-11-05T08:30:24.214Z,1021.0
2022-11-05T08:45:24.054Z,1021.0
2022-11-05T09:00:36.695Z,1021.0
2022-11-05T09:15:24.086Z,1021.0
2022-11-05T09:30:24.492Z,1021.3
2022-11-05T09:45:24.147Z,1022.0
2022-11-05T10:00:35.632Z,1022.0
2022-11-05T10:15:24.127Z,1022.0
2022-11-05T10:30:25.678Z,1022.0
2022-11-05T10:45:24.236Z,1022.0
2022-11-05T11:00:24.387Z,1022.0
2022-11-05T11:15:24.385Z,1022.0
2022-11-05T11:30:25.429Z,1022.0
2022-11-05T11:45:24.735Z,1022.0
2022-11-05T12:00:35.112Z,1022.0
2022-11-05T12:15:24.387Z,1022.0
2022-11-05T12:30:31.640Z,1022.0
2022-11-05T12:45:24.435Z,1022.0
2022-11-05T13:00:38.867Z,1022.0
2022-11-05T13:15:24.726Z,1022.0
2022-11-05T13:30:33.984Z,1022.0
2022-11-05T13:45:33.682Z,1022.7
2022-11-05T14:00:43.796Z,1023.0
2022-11-05T14:15:23.539Z,1023.0
2022-11-05T14:30:23.502Z,1023.0
2022-11-05T14:45:23.502Z,1023.0
2022-11-05T15:00:23.594Z,1023.0
2022-11-05T15:15:23.998Z,1023.0
2022-11-05T15:30:24.087Z,1023.0
2022-11-05T15:45:29.279Z,1023.0
2022-11-05T16:00:26.870Z,1023.0
2022-11-05T16:15:24.343Z,1023.0
2022-11-05T16:30:27.127Z,1023.0
2022-11-05T16:45:23.955Z,1023.0
2022-11-05T17:00:30.042Z,1023.7
2022-11-05T17:15:23.806Z,1024.0
2022-11-05T17:30:25.098Z,1024.0
2022-11-05T17:45:24.061Z,1024.0
2022-11-05T18:00:42.337Z,1024.0
2022-11-05T18:15:23.796Z,1024.0
2022-11-05T18:30:28.137Z,1024.0
2022-11-05T18:45:29.372Z,1024.0
2022-11-05T19:00:23.945Z,1024.0
2022-11-05T19:15:23.857Z,1024.0
2022-11-05T19:30:26.598Z,1024.0
2022-11-05T19:45:43.400Z,1024.0
2022-11-05T20:00:32.107Z,1024.0
2022-11-05T20:15:23.907Z,1024.0
2022-11-05T20:30:24.119Z,1024.3
2022-11-05T20:45:24.210Z,1025.0
2022-11-05T21:00:29.929Z,1025.0
2022-11-05T22:39:16.653Z,1025.0
2022-11-05T22:54:16.799Z,1024.7
2022-11-05T23:15:23.660Z,1024.0
2022-11-05T23:30:24.003Z,1024.0
2022-11-05T23:45:23.848Z,1024.0
